createdAt,value
2017-05-14T00:00:15.222Z,63.80
2017-05-14T00:02:42.596Z,63.70
2017-05-14T00:05:10.091Z,63.10
2017-05-14T00:07:37.687Z,63.30
2017-05-14T00:10:05.209Z,63.70
2017-05-14T00:12:32.594Z,64.00
2017-05-14T00:15:00.076Z,64.10
2017-05-14T00:17:28.147Z,64.90
2017-05-14T00:19:56.225Z,64.60
2017-05-14T00:22:24.465Z,64.40
2017-05-14T00:24:51.805Z,64.90
2017-05-14T00:27:19.134Z,65.10
2017-05-14T00:29:46.535Z,64.80
2017-05-14T00:32:13.910Z,64.60
2017-05-14T00:34:41.321Z,64.80
2017-05-14T00:37:08.843Z,65.20
2017-05-14T00:39:36.201Z,66.40
2017-05-14T00:42:03.769Z,66.40
2017-05-14T00:44:31.123Z,65.20
2017-05-14T00:46:58.507Z,65.10
2017-05-14T00:49:25.854Z,65.70
2017-05-14T00:51:53.183Z,65.60
2017-05-14T00:54:20.593Z,65.60
2017-05-14T00:56:48.237Z,65.70
2017-05-14T00:59:16.579Z,65.90
2017-05-14T01:01:43.936Z,65.40
2017-05-14T01:04:11.298Z,65.30
2017-05-14T01:06:38.674Z,66.70
2017-05-14T01:09:06.055Z,67.50
2017-05-14T01:11:34.473Z,69.60
2017-05-14T01:14:01.848Z,70.70
2017-05-14T01:16:29.704Z,69.60
2017-05-14T01:18:57.220Z,69.40
2017-05-14T01:21:24.573Z,69.60
2017-05-14T01:23:52.740Z,69.60
2017-05-14T01:26:20.369Z,70.50
2017-05-14T01:28:48.003Z,69.90
2017-05-14T01:31:15.590Z,69.70
2017-05-14T01:33:43.023Z,69.20
2017-05-14T01:36:10.418Z,69.90
2017-05-14T01:38:38.129Z,70.50
2017-05-14T01:41:05.492Z,70.30
2017-05-14T01:43:32.969Z,70.10
2017-05-14T01:46:00.336Z,69.60
2017-05-14T01:48:28.338Z,69.70
2017-05-14T01:50:56.612Z,69.20
2017-05-14T01:53:24.732Z,69.90
2017-05-14T01:55:52.145Z,70.50
2017-05-14T01:58:19.887Z,71.00
2017-05-14T02:00:47.298Z,70.90
2017-05-14T02:03:14.756Z,70.80
2017-05-14T02:05:42.158Z,70.40
2017-05-14T02:08:10.587Z,70.30
2017-05-14T02:10:37.985Z,70.60
2017-05-14T02:13:05.447Z,70.30
2017-05-14T02:15:32.789Z,70.90
2017-05-14T02:18:00.149Z,71.30
2017-05-14T02:20:27.906Z,71.40
2017-05-14T02:22:55.445Z,71.60
2017-05-14T02:25:23.130Z,71.60
2017-05-14T02:27:50.490Z,72.00
2017-05-14T02:30:17.798Z,71.90
2017-05-14T02:32:45.542Z,72.40
2017-05-14T02:35:13.139Z,71.30
2017-05-14T02:37:40.589Z,71.60
2017-05-14T02:40:07.976Z,71.90
2017-05-14T02:42:35.437Z,71.70
2017-05-14T02:45:03.604Z,72.20
2017-05-14T02:47:30.950Z,71.90
2017-05-14T02:49:58.602Z,71.60
2017-05-14T02:52:25.961Z,71.60
2017-05-14T02:54:54.177Z,71.20
2017-05-14T02:57:22.329Z,71.90
2017-05-14T02:59:50.020Z,71.90
2017-05-14T03:02:18.268Z,72.30
2017-05-14T03:04:46.428Z,72.10
2017-05-14T03:07:13.777Z,72.20
2017-05-14T03:09:41.659Z,71.80
2017-05-14T03:12:09.084Z,72.00
2017-05-14T03:14:37.008Z,73.10
2017-05-14T03:17:04.400Z,73.00
2017-05-14T03:19:31.769Z,72.60
2017-05-14T03:21:59.141Z,73.00
2017-05-14T03:24:26.493Z,72.60
2017-05-14T03:26:53.839Z,73.50
2017-05-14T03:29:22.236Z,72.90
2017-05-14T03:31:49.624Z,72.20
2017-05-14T03:34:17.042Z,73.00
2017-05-14T03:36:47.392Z,72.30
2017-05-14T03:39:15.543Z,72.20
2017-05-14T03:41:43.645Z,72.90
2017-05-14T03:44:11.754Z,72.10
2017-05-14T03:46:39.153Z,71.50
2017-05-14T03:49:06.540Z,71.40
2017-05-14T03:51:33.899Z,71.60
2017-05-14T03:54:02.171Z,71.70
2017-05-14T03:56:29.759Z,71.50
2017-05-14T03:58:57.143Z,71.80
2017-05-14T04:01:25.390Z,72.90
2017-05-14T04:03:52.874Z,71.80
2017-05-14T04:06:20.815Z,71.50
2017-05-14T04:08:48.178Z,71.40
2017-05-14T04:11:15.524Z,72.10
2017-05-14T04:13:43.053Z,71.40
2017-05-14T04:16:10.538Z,72.00
2017-05-14T04:18:37.939Z,71.90
2017-05-14T04:21:06.041Z,71.90
2017-05-14T04:23:33.617Z,71.10
2017-05-14T04:26:00.957Z,71.60
2017-05-14T04:28:34.597Z,72.10
2017-05-14T04:31:02.001Z,71.80
2017-05-14T04:33:29.625Z,72.40
2017-05-14T04:35:57.029Z,72.50
2017-05-14T04:38:25.098Z,72.40
2017-05-14T04:40:52.879Z,71.70
2017-05-14T04:43:20.247Z,72.00
2017-05-14T04:45:47.627Z,71.90
2017-05-14T04:48:15.845Z,71.70
2017-05-14T04:50:43.269Z,71.60
2017-05-14T04:53:11.373Z,71.50
2017-05-14T04:55:38.782Z,71.60
2017-05-14T04:58:06.161Z,71.90
2017-05-14T05:00:34.491Z,71.90
2017-05-14T05:03:01.866Z,71.60
2017-05-14T05:05:29.617Z,71.40
2017-05-14T05:07:57.085Z,71.50
2017-05-14T05:10:24.634Z,71.40
2017-05-14T05:12:53.123Z,71.40
2017-05-14T05:15:21.241Z,71.70
2017-05-14T05:17:49.207Z,71.50
2017-05-14T05:20:16.835Z,71.40
2017-05-14T05:22:44.972Z,71.00
2017-05-14T05:25:12.344Z,70.40
2017-05-14T05:27:39.734Z,70.00
2017-05-14T05:30:07.255Z,70.00
2017-05-14T05:32:35.176Z,70.10
2017-05-14T05:35:03.104Z,70.10
2017-05-14T05:37:30.884Z,69.90
2017-05-14T05:39:58.228Z,69.30
2017-05-14T05:42:25.596Z,69.40
2017-05-14T05:44:53.835Z,69.60
2017-05-14T05:47:21.307Z,69.40
2017-05-14T05:49:49.938Z,69.00
2017-05-14T05:52:17.358Z,68.60
2017-05-14T05:54:45.762Z,67.90
2017-05-14T05:57:13.883Z,67.80
2017-05-14T05:59:41.988Z,67.00
2017-05-14T06:02:10.073Z,67.30
2017-05-14T06:04:37.435Z,67.00
2017-05-14T06:07:05.072Z,66.70
2017-05-14T06:09:32.409Z,66.20
2017-05-14T06:11:59.785Z,65.70
2017-05-14T06:14:27.187Z,66.00
2017-05-14T06:16:55.294Z,65.20
2017-05-14T06:19:22.647Z,65.70
2017-05-14T06:21:50.902Z,65.00
2017-05-14T06:24:18.275Z,65.10
2017-05-14T06:26:46.060Z,64.60
2017-05-14T06:29:14.215Z,63.50
2017-05-14T06:31:41.599Z,62.90
2017-05-14T06:34:08.975Z,62.70
2017-05-14T06:36:36.394Z,62.60
2017-05-14T06:39:04.489Z,62.60
2017-05-14T06:41:32.158Z,62.00
2017-05-14T06:43:59.640Z,61.70
2017-05-14T06:46:27.016Z,61.50
2017-05-14T06:48:54.390Z,61.30
2017-05-14T06:51:22.810Z,60.70
2017-05-14T06:53:50.317Z,59.70
2017-05-14T06:56:18.431Z,59.30
2017-05-14T06:58:46.430Z,59.50
2017-05-14T07:01:14.161Z,58.80
2017-05-14T07:03:41.497Z,58.60
2017-05-14T07:06:09.718Z,58.80
2017-05-14T07:08:37.122Z,58.50
2017-05-14T07:11:05.221Z,58.70
2017-05-14T07:13:32.648Z,58.10
2017-05-14T07:15:59.987Z,58.50
2017-05-14T07:18:28.790Z,58.50
2017-05-14T07:20:56.142Z,58.10
2017-05-14T07:23:24.245Z,58.30
2017-05-14T07:25:51.719Z,57.90
2017-05-14T07:28:19.086Z,57.70
2017-05-14T07:30:46.483Z,57.60
2017-05-14T07:33:14.964Z,57.80
2017-05-14T07:35:43.141Z,57.50
2017-05-14T07:38:10.550Z,57.80
2017-05-14T07:40:38.547Z,57.60
2017-05-14T07:43:05.933Z,58.00
2017-05-14T07:45:34.035Z,58.20
2017-05-14T07:48:01.363Z,57.80
2017-05-14T07:50:33.890Z,57.90
2017-05-14T07:53:02.557Z,58.50
2017-05-14T07:55:29.993Z,58.40
2017-05-14T07:57:58.026Z,58.10
2017-05-14T08:00:25.720Z,57.60
2017-05-14T08:02:53.342Z,57.90
2017-05-14T08:05:20.803Z,57.60
2017-05-14T08:07:49.316Z,57.40
2017-05-14T08:10:16.711Z,56.80
2017-05-14T08:12:44.104Z,56.70
2017-05-14T08:15:12.197Z,56.60
2017-05-14T08:17:39.902Z,56.60
2017-05-14T08:20:07.649Z,56.10
2017-05-14T08:22:35.043Z,55.80
2017-05-14T08:25:02.437Z,56.00
2017-05-14T08:27:30.182Z,55.50
2017-05-14T08:29:57.585Z,54.90
2017-05-14T08:32:24.974Z,55.20
2017-05-14T08:34:52.317Z,54.90
2017-05-14T08:37:20.219Z,54.60
2017-05-14T08:39:50.191Z,54.60
2017-05-14T08:42:17.642Z,53.50
2017-05-14T08:44:46.657Z,52.60
2017-05-14T08:47:14.190Z,51.80
2017-05-14T08:49:41.547Z,52.10
2017-05-14T08:52:09.016Z,51.30
2017-05-14T08:54:43.460Z,49.80
2017-05-14T08:57:10.903Z,48.80
2017-05-14T08:59:38.253Z,48.80
2017-05-14T09:02:05.712Z,47.00
2017-05-14T09:04:33.856Z,44.80
2017-05-14T09:07:01.970Z,40.10
2017-05-14T09:09:30.543Z,32.80
2017-05-14T09:11:58.140Z,28.10
2017-05-14T09:14:25.547Z,25.10
2017-05-14T09:16:52.913Z,24.10
2017-05-14T09:19:21.048Z,22.70
2017-05-14T09:21:48.411Z,21.70
2017-05-14T09:24:15.735Z,21.30
2017-05-14T09:26:43.073Z,20.20
2017-05-14T09:29:10.485Z,19.90
2017-05-14T09:31:38.400Z,19.80
2017-05-14T09:34:06.095Z,19.50
2017-05-14T09:36:33.593Z,25.40
2017-05-14T09:39:02.139Z,28.00
2017-05-14T09:41:29.515Z,26.90
2017-05-14T09:43:56.976Z,27.70
2017-05-14T09:46:24.349Z,26.40
2017-05-14T09:48:52.472Z,26.70
2017-05-14T09:51:19.844Z,27.10
2017-05-14T09:53:47.217Z,28.70
2017-05-14T09:56:15.357Z,29.00
2017-05-14T09:58:42.782Z,26.90
2017-05-14T10:01:10.230Z,28.50
2017-05-14T10:03:38.133Z,28.80
2017-05-14T10:06:06.165Z,28.20
2017-05-14T10:08:34.948Z,28.80
2017-05-14T10:11:03.125Z,29.10
2017-05-14T10:13:30.497Z,31.20
2017-05-14T10:15:59.635Z,29.10
2017-05-14T10:18:27.267Z,29.40
2017-05-14T10:20:54.632Z,28.30
2017-05-14T10:23:22.520Z,28.10
2017-05-14T10:25:49.878Z,30.20
2017-05-14T10:28:18.029Z,29.50
2017-05-14T10:30:45.427Z,28.00
2017-05-14T10:33:12.914Z,30.20
2017-05-14T10:35:40.306Z,31.00
2017-05-14T10:38:08.640Z,29.50
2017-05-14T10:40:35.994Z,33.80
2017-05-14T10:43:03.399Z,33.40
2017-05-14T10:45:30.757Z,31.50
2017-05-14T10:47:58.111Z,32.80
2017-05-14T10:50:25.506Z,33.80
2017-05-14T10:52:59.837Z,32.60
2017-05-14T10:55:27.202Z,30.50
2017-05-14T10:57:54.684Z,30.20
2017-05-14T11:00:22.028Z,31.80
2017-05-14T11:02:49.398Z,31.10
2017-05-14T11:05:16.735Z,31.10
2017-05-14T11:07:44.077Z,34.00
2017-05-14T11:10:11.467Z,34.40
2017-05-14T11:12:38.942Z,33.20
2017-05-14T11:15:06.449Z,32.50
2017-05-14T11:17:33.807Z,32.90
2017-05-14T11:20:01.141Z,35.70
2017-05-14T11:22:28.834Z,36.90
2017-05-14T11:25:01.459Z,34.50
2017-05-14T11:27:29.684Z,33.90
2017-05-14T11:29:57.252Z,32.40
2017-05-14T11:32:24.744Z,31.50
2017-05-14T11:34:53.277Z,31.10
2017-05-14T11:37:20.756Z,33.00
2017-05-14T11:39:48.102Z,32.00
2017-05-14T11:42:16.437Z,32.10
2017-05-14T11:44:43.819Z,32.00
2017-05-14T11:47:11.153Z,30.60
2017-05-14T11:49:38.492Z,29.40
2017-05-14T11:52:05.898Z,30.60
2017-05-14T11:54:33.266Z,30.00
2017-05-14T11:57:00.637Z,30.00
2017-05-14T11:59:29.586Z,29.80
2017-05-14T12:01:56.981Z,30.60
2017-05-14T12:04:24.321Z,30.30
2017-05-14T12:06:51.702Z,30.80
2017-05-14T12:09:20.027Z,32.20
2017-05-14T12:11:48.535Z,32.20
2017-05-14T12:14:15.933Z,34.40
2017-05-14T12:16:43.320Z,36.50
2017-05-14T12:19:10.691Z,37.10
2017-05-14T12:21:38.038Z,38.00
2017-05-14T12:24:05.421Z,38.50
2017-05-14T12:26:33.580Z,39.80
2017-05-14T12:29:01.325Z,41.40
2017-05-14T12:31:29.074Z,44.00
2017-05-14T12:33:56.436Z,45.70
2017-05-14T12:36:23.737Z,47.30
2017-05-14T12:38:51.873Z,47.10
2017-05-14T12:41:20.285Z,47.40
2017-05-14T12:43:47.961Z,47.60
2017-05-14T12:46:15.984Z,47.50
2017-05-14T12:48:43.404Z,47.10
2017-05-14T12:51:10.793Z,47.40
2017-05-14T12:53:38.241Z,48.00
2017-05-14T12:56:06.266Z,47.90
2017-05-14T12:58:33.609Z,48.20
2017-05-14T13:01:02.286Z,48.20
2017-05-14T13:03:29.840Z,48.50
2017-05-14T13:05:57.895Z,48.50
2017-05-14T13:08:25.377Z,49.00
2017-05-14T13:10:53.506Z,50.40
2017-05-14T13:13:21.057Z,50.20
2017-05-14T13:15:48.685Z,50.50
2017-05-14T13:18:16.091Z,50.40
2017-05-14T13:20:43.469Z,51.20
2017-05-14T13:23:11.601Z,50.40
2017-05-14T13:28:21.320Z,50.30
2017-05-14T13:30:49.494Z,50.80
2017-05-14T13:33:17.090Z,50.20
2017-05-14T13:35:44.452Z,50.70
2017-05-14T13:38:12.161Z,50.80
2017-05-14T13:40:39.542Z,49.90
2017-05-14T13:43:07.277Z,50.80
2017-05-14T13:45:35.459Z,50.90
2017-05-14T13:48:03.678Z,51.40
2017-05-14T13:50:44.217Z,50.10
2017-05-14T13:53:11.579Z,50.60
2017-05-14T13:55:46.829Z,50.90
2017-05-14T13:58:14.619Z,51.80
2017-05-14T14:00:49.794Z,49.30
2017-05-14T14:03:17.880Z,49.40
2017-05-14T14:05:45.415Z,50.10
2017-05-14T14:08:12.861Z,47.60
2017-05-14T14:10:40.358Z,47.70
2017-05-14T14:13:07.721Z,49.00
2017-05-14T14:15:35.209Z,51.00
2017-05-14T14:18:02.610Z,52.40
2017-05-14T14:20:30.808Z,52.30
2017-05-14T14:22:58.274Z,52.90
2017-05-14T14:25:26.966Z,52.80
2017-05-14T14:27:54.290Z,53.40
2017-05-14T14:30:21.906Z,53.30
2017-05-14T14:32:50.020Z,53.80
2017-05-14T14:35:17.499Z,54.10
2017-05-14T14:37:44.873Z,54.40
2017-05-14T14:40:12.467Z,54.70
2017-05-14T14:42:39.826Z,55.00
2017-05-14T14:45:07.248Z,53.40
2017-05-14T14:47:34.603Z,53.40
2017-05-14T14:50:02.040Z,52.80
2017-05-14T14:52:29.373Z,52.40
2017-05-14T14:54:58.076Z,52.50
2017-05-14T14:57:25.506Z,52.30
2017-05-14T14:59:53.046Z,52.10
2017-05-14T15:02:21.468Z,52.10
2017-05-14T15:04:48.855Z,52.40
2017-05-14T15:07:16.640Z,52.20
2017-05-14T15:09:44.069Z,51.80
2017-05-14T15:12:19.716Z,51.30
2017-05-14T15:14:47.094Z,51.30
2017-05-14T15:17:14.519Z,50.80
2017-05-14T15:19:41.909Z,50.90
2017-05-14T15:22:10.137Z,49.50
2017-05-14T15:24:38.503Z,49.20
2017-05-14T15:27:06.483Z,47.80
2017-05-14T15:29:33.943Z,47.40
2017-05-14T15:32:01.310Z,45.90
2017-05-14T15:34:29.160Z,45.30
2017-05-14T15:36:56.533Z,46.00
2017-05-14T15:39:23.991Z,47.30
2017-05-14T15:41:51.467Z,47.50
2017-05-14T15:44:19.344Z,48.10
2017-05-14T15:46:47.686Z,48.30
2017-05-14T15:49:15.300Z,48.50
2017-05-14T15:51:43.840Z,48.90
2017-05-14T15:54:17.831Z,50.00
2017-05-14T15:56:45.483Z,50.00
2017-05-14T16:02:51.105Z,50.40
2017-05-14T16:05:18.845Z,50.60
2017-05-14T16:07:46.548Z,51.10
2017-05-14T16:10:14.725Z,50.60
2017-05-14T16:12:42.083Z,50.90
2017-05-14T16:15:09.805Z,50.70
2017-05-14T16:17:38.425Z,50.90
2017-05-14T16:20:05.880Z,51.10
2017-05-14T16:22:34.329Z,50.80
2017-05-14T16:25:02.536Z,50.30
2017-05-14T16:27:30.653Z,50.30
2017-05-14T16:29:59.014Z,50.40
2017-05-14T16:32:27.002Z,50.60
2017-05-14T16:34:54.597Z,50.80
2017-05-14T16:37:22.133Z,51.20
2017-05-14T16:39:49.585Z,50.40
2017-05-14T16:42:17.600Z,50.60
2017-05-14T16:44:46.437Z,51.80
2017-05-14T16:47:13.861Z,50.10
2017-05-14T16:49:46.572Z,50.40
2017-05-14T16:52:14.001Z,51.20
2017-05-14T16:54:43.379Z,52.20
2017-05-14T16:57:10.822Z,52.70
2017-05-14T16:59:39.647Z,53.50
2017-05-14T17:02:07.646Z,53.70
2017-05-14T17:04:36.009Z,54.50
2017-05-14T17:07:03.437Z,54.00
2017-05-14T17:09:39.109Z,54.60
2017-05-14T17:12:08.870Z,54.20
2017-05-14T17:14:37.104Z,54.30
2017-05-14T17:17:04.568Z,54.50
2017-05-14T17:19:33.295Z,54.90
2017-05-14T17:22:01.558Z,55.70
2017-05-14T17:24:30.536Z,55.70
2017-05-14T17:26:58.151Z,55.30
2017-05-14T17:29:25.585Z,54.60
2017-05-14T17:31:54.347Z,54.60
2017-05-14T17:34:22.529Z,55.20
2017-05-14T17:36:50.258Z,55.00
2017-05-14T17:39:17.774Z,55.10
2017-05-14T17:41:45.414Z,55.10
2017-05-14T17:44:13.515Z,54.40
2017-05-14T17:46:41.232Z,54.90
2017-05-14T17:49:08.747Z,55.60
2017-05-14T17:51:36.311Z,55.90
2017-05-14T17:54:05.473Z,56.30
2017-05-14T17:56:33.016Z,56.50
2017-05-14T17:59:00.452Z,57.60
2017-05-14T18:01:29.002Z,58.10
2017-05-14T18:03:56.495Z,58.00
2017-05-14T18:06:24.717Z,58.60
2017-05-14T18:08:52.185Z,58.90
2017-05-14T18:11:19.674Z,59.00
2017-05-14T18:13:48.249Z,59.40
2017-05-14T18:16:17.229Z,59.60
2017-05-14T18:18:44.712Z,59.70
2017-05-14T18:21:12.145Z,59.30
2017-05-14T18:23:40.373Z,59.60
2017-05-14T18:26:08.018Z,59.20
2017-05-14T18:28:35.442Z,58.50
2017-05-14T18:31:03.100Z,58.80
2017-05-14T18:33:32.664Z,59.10
2017-05-14T18:36:00.218Z,58.70
2017-05-14T18:38:27.732Z,58.60
2017-05-14T18:40:55.853Z,59.00
2017-05-14T18:43:23.405Z,59.30
2017-05-14T18:45:51.827Z,60.00
2017-05-14T18:48:19.435Z,60.10
2017-05-14T18:50:47.637Z,60.20
2017-05-14T18:53:15.450Z,60.00
2017-05-14T18:55:42.873Z,59.80
2017-05-14T18:58:10.865Z,60.20
2017-05-14T19:00:38.440Z,60.40
2017-05-14T19:03:05.896Z,59.70
2017-05-14T19:05:34.114Z,59.80
2017-05-14T19:08:01.707Z,58.80
2017-05-14T19:10:29.432Z,59.20
2017-05-14T19:12:56.955Z,59.20
2017-05-14T19:15:25.265Z,58.90
2017-05-14T19:17:52.868Z,58.70
2017-05-14T19:20:20.530Z,59.30
2017-05-14T19:22:48.321Z,59.50
2017-05-14T19:25:15.790Z,60.20
2017-05-14T19:27:43.482Z,60.00
2017-05-14T19:30:11.030Z,60.50
2017-05-14T19:32:38.649Z,60.60
2017-05-14T19:35:06.914Z,61.10
2017-05-14T19:37:35.275Z,62.00
2017-05-14T19:40:02.864Z,62.70
2017-05-14T19:42:31.174Z,61.70
2017-05-14T19:44:58.893Z,62.30
2017-05-14T19:47:26.440Z,61.90
2017-05-14T19:49:54.098Z,62.50
2017-05-14T19:52:22.404Z,63.30
2017-05-14T19:54:49.969Z,63.40
2017-05-14T19:57:18.148Z,63.40
2017-05-14T19:59:45.676Z,63.70
2017-05-14T20:02:13.336Z,63.10
2017-05-14T20:04:42.392Z,63.90
2017-05-14T20:07:10.263Z,63.40
2017-05-14T20:09:37.869Z,64.10
2017-05-14T20:12:05.614Z,64.10
2017-05-14T20:14:34.080Z,64.80
2017-05-14T20:17:01.585Z,65.40
2017-05-14T20:19:29.322Z,66.00
2017-05-14T20:21:56.770Z,66.80
2017-05-14T20:24:24.250Z,66.90
2017-05-14T20:26:52.468Z,67.50
2017-05-14T20:29:19.937Z,67.30
2017-05-14T20:31:47.376Z,67.50
2017-05-14T20:34:14.787Z,68.10
2017-05-14T20:36:42.949Z,68.10
2017-05-14T20:39:10.440Z,68.30
2017-05-14T20:41:37.877Z,68.00
2017-05-14T20:44:06.141Z,67.80
2017-05-14T20:46:33.612Z,67.80
2017-05-14T20:49:02.164Z,67.80
2017-05-14T20:51:30.091Z,67.40
2017-05-14T20:53:57.728Z,67.20
2017-05-14T20:56:26.115Z,68.70
2017-05-14T20:58:53.647Z,68.70
2017-05-14T21:01:21.180Z,69.50
2017-05-14T21:03:48.905Z,69.30
2017-05-14T21:06:16.509Z,69.20
2017-05-14T21:08:44.081Z,69.40
2017-05-14T21:11:11.525Z,69.10
2017-05-14T21:13:39.165Z,69.50
2017-05-14T21:16:06.572Z,69.40
2017-05-14T21:18:34.606Z,69.70
2017-05-14T21:21:02.061Z,68.90
2017-05-14T21:23:29.827Z,68.60
2017-05-14T21:25:57.263Z,68.60
2017-05-14T21:28:24.726Z,68.80
2017-05-14T21:30:52.150Z,68.70
2017-05-14T21:33:20.303Z,69.10
2017-05-14T21:35:49.101Z,68.70
2017-05-14T21:38:16.758Z,68.60
2017-05-14T21:40:44.155Z,68.90
2017-05-14T21:43:11.562Z,69.40
2017-05-14T21:45:39.824Z,69.90
2017-05-14T21:48:14.299Z,70.30
2017-05-14T21:50:41.783Z,70.40
2017-05-14T21:53:09.251Z,70.60
2017-05-14T21:55:36.686Z,70.10
2017-05-14T21:58:04.084Z,69.70
2017-05-14T22:00:31.546Z,69.70
2017-05-14T22:02:59.787Z,69.90
2017-05-14T22:05:27.214Z,70.20
2017-05-14T22:07:54.595Z,69.60
2017-05-14T22:10:22.067Z,69.80
2017-05-14T22:12:49.490Z,70.10
2017-05-14T22:15:17.186Z,69.90
2017-05-14T22:17:44.557Z,70.40
2017-05-14T22:20:11.973Z,70.20
2017-05-14T22:22:39.358Z,71.10
2017-05-14T22:25:06.747Z,71.70
2017-05-14T22:27:35.612Z,72.10
2017-05-14T22:30:03.041Z,72.20
2017-05-14T22:32:30.705Z,72.50
2017-05-14T22:34:58.091Z,73.20
2017-05-14T22:37:25.489Z,73.40
2017-05-14T22:39:52.849Z,73.70
2017-05-14T22:42:20.434Z,73.40
2017-05-14T22:44:47.900Z,73.00
2017-05-14T22:47:16.842Z,73.00
2017-05-14T22:49:44.257Z,72.80
2017-05-14T22:52:11.708Z,72.70
2017-05-14T22:54:39.248Z,72.60
2017-05-14T22:57:06.593Z,72.80
2017-05-14T22:59:33.967Z,73.00
2017-05-14T23:02:01.579Z,73.10
2017-05-14T23:04:29.031Z,74.00
2017-05-14T23:06:56.642Z,74.90
2017-05-14T23:09:24.707Z,75.50
2017-05-14T23:11:52.073Z,76.00
2017-05-14T23:14:20.359Z,76.00
2017-05-14T23:16:47.993Z,76.30
2017-05-14T23:19:15.567Z,76.40
2017-05-14T23:21:42.977Z,76.50
2017-05-14T23:24:10.391Z,75.90
2017-05-14T23:26:38.104Z,75.40
2017-05-14T23:29:05.572Z,74.90
2017-05-14T23:31:33.015Z,74.80
2017-05-14T23:34:00.426Z,74.50
2017-05-14T23:36:28.062Z,74.80
2017-05-14T23:38:56.770Z,73.70
2017-05-14T23:41:24.920Z,73.20
2017-05-14T23:43:52.306Z,73.30
2017-05-14T23:46:20.474Z,73.00
2017-05-14T23:48:47.896Z,73.10
2017-05-14T23:51:15.292Z,73.00
2017-05-14T23:53:44.406Z,72.80
2017-05-14T23:56:12.015Z,72.70
2017-05-14T23:58:39.393Z,72.00
